sensor_id;sensor_type;location;lat;lon;timestamp;temperature;humidity
64670;DHT22;51080;51.690;5.174;2022-09-09T00:03:48;14.40;85.70
64670;DHT22;51080;51.690;5.174;2022-09-09T00:16:21;14.30;86.10
64670;DHT22;51080;51.690;5.174;2022-09-09T00:22:20;14.20;85.40
64670;DHT22;51080;51.690;5.174;2022-09-09T00:28:19;14.20;85.50
64670;DHT22;51080;51.690;5.174;2022-09-09T00:34:18;14.10;85.90
64670;DHT22;51080;51.690;5.174;2022-09-09T00:40:22;14.00;85.60
64670;DHT22;51080;51.690;5.174;2022-09-09T00:46:41;14.00;85.80
64670;DHT22;51080;51.690;5.174;2022-09-09T00:59:32;14.00;86.80
64670;DHT22;51080;51.690;5.174;2022-09-09T01:05:30;13.90;85.90
64670;DHT22;51080;51.690;5.174;2022-09-09T01:11:22;13.90;86.10
64670;DHT22;51080;51.690;5.174;2022-09-09T01:17:31;13.80;85.60
64670;DHT22;51080;51.690;5.174;2022-09-09T01:30:11;13.80;86.70
64670;DHT22;51080;51.690;5.174;2022-09-09T01:36:10;13.80;86.30
64670;DHT22;51080;51.690;5.174;2022-09-09T01:41:56;13.70;86.50
64670;DHT22;51080;51.690;5.174;2022-09-09T01:47:39;13.70;85.90
64670;DHT22;51080;51.690;5.174;2022-09-09T01:53:32;13.70;85.60
64670;DHT22;51080;51.690;5.174;2022-09-09T01:59:28;13.60;85.60
64670;DHT22;51080;51.690;5.174;2022-09-09T02:05:43;13.70;85.40
64670;DHT22;51080;51.690;5.174;2022-09-09T02:12:08;13.60;85.50
64670;DHT22;51080;51.690;5.174;2022-09-09T02:17:56;13.70;86.10
64670;DHT22;51080;51.690;5.174;2022-09-09T02:23:42;13.60;85.90
64670;DHT22;51080;51.690;5.174;2022-09-09T02:29:36;13.60;85.60
64670;DHT22;51080;51.690;5.174;2022-09-09T02:35:23;13.60;85.60
64670;DHT22;51080;51.690;5.174;2022-09-09T02:41:07;13.50;85.70
64670;DHT22;51080;51.690;5.174;2022-09-09T02:53:16;13.50;86.10
64670;DHT22;51080;51.690;5.174;2022-09-09T02:59:03;13.50;86.10
64670;DHT22;51080;51.690;5.174;2022-09-09T03:04:57;13.50;86.10
64670;DHT22;51080;51.690;5.174;2022-09-09T03:10:40;13.40;86.20
64670;DHT22;51080;51.690;5.174;2022-09-09T03:16:24;13.50;86.00
64670;DHT22;51080;51.690;5.174;2022-09-09T03:22:10;13.40;86.10
64670;DHT22;51080;51.690;5.174;2022-09-09T03:27:54;13.40;86.50
64670;DHT22;51080;51.690;5.174;2022-09-09T03:33:39;13.40;86.70
64670;DHT22;51080;51.690;5.174;2022-09-09T03:39:53;13.40;86.50
64670;DHT22;51080;51.690;5.174;2022-09-09T03:45:36;13.40;87.90
64670;DHT22;51080;51.690;5.174;2022-09-09T03:51:20;13.40;86.30
64670;DHT22;51080;51.690;5.174;2022-09-09T03:57:04;13.40;86.30
64670;DHT22;51080;51.690;5.174;2022-09-09T04:03:18;13.40;86.50
64670;DHT22;51080;51.690;5.174;2022-09-09T04:09:02;13.40;87.20
64670;DHT22;51080;51.690;5.174;2022-09-09T04:14:46;13.40;86.60
64670;DHT22;51080;51.690;5.174;2022-09-09T04:20:30;13.40;86.20
64670;DHT22;51080;51.690;5.174;2022-09-09T04:26:13;13.40;86.80
64670;DHT22;51080;51.690;5.174;2022-09-09T04:31:57;13.40;86.30
64670;DHT22;51080;51.690;5.174;2022-09-09T04:37:40;13.40;86.50
64670;DHT22;51080;51.690;5.174;2022-09-09T04:43:24;13.40;86.60
64670;DHT22;51080;51.690;5.174;2022-09-09T04:49:08;13.40;87.10
64670;DHT22;51080;51.690;5.174;2022-09-09T04:54:52;13.40;87.00
64670;DHT22;51080;51.690;5.174;2022-09-09T05:00:37;13.40;86.60
64670;DHT22;51080;51.690;5.174;2022-09-09T05:06:21;13.40;87.40
64670;DHT22;51080;51.690;5.174;2022-09-09T05:12:06;13.50;87.50
64670;DHT22;51080;51.690;5.174;2022-09-09T05:17:51;13.50;87.80
64670;DHT22;51080;51.690;5.174;2022-09-09T05:23:34;13.50;87.50
64670;DHT22;51080;51.690;5.174;2022-09-09T05:29:18;13.50;87.50
64670;DHT22;51080;51.690;5.174;2022-09-09T05:35:32;13.50;88.20
64670;DHT22;51080;51.690;5.174;2022-09-09T05:41:16;13.60;89.20
64670;DHT22;51080;51.690;5.174;2022-09-09T05:46:59;13.70;88.10
64670;DHT22;51080;51.690;5.174;2022-09-09T05:52:43;13.80;88.90
64670;DHT22;51080;51.690;5.174;2022-09-09T05:58:27;13.80;87.80
64670;DHT22;51080;51.690;5.174;2022-09-09T06:04:11;13.90;87.90
64670;DHT22;51080;51.690;5.174;2022-09-09T06:09:54;13.90;89.30
64670;DHT22;51080;51.690;5.174;2022-09-09T06:15:39;14.00;89.10
64670;DHT22;51080;51.690;5.174;2022-09-09T06:21:25;14.20;89.40
64670;DHT22;51080;51.690;5.174;2022-09-09T06:27:40;14.30;88.80
64670;DHT22;51080;51.690;5.174;2022-09-09T06:33:25;14.40;90.20
64670;DHT22;51080;51.690;5.174;2022-09-09T06:39:09;14.50;89.20
64670;DHT22;51080;51.690;5.174;2022-09-09T06:44:51;14.50;88.70
64670;DHT22;51080;51.690;5.174;2022-09-09T06:50:36;14.60;88.30
64670;DHT22;51080;51.690;5.174;2022-09-09T07:02:45;15.00;87.90
64670;DHT22;51080;51.690;5.174;2022-09-09T07:08:30;15.00;88.70
64670;DHT22;51080;51.690;5.174;2022-09-09T07:14:14;15.00;87.70
64670;DHT22;51080;51.690;5.174;2022-09-09T07:20:28;15.10;87.00
64670;DHT22;51080;51.690;5.174;2022-09-09T07:26:17;15.20;88.00
64670;DHT22;51080;51.690;5.174;2022-09-09T07:32:31;15.30;86.40
64670;DHT22;51080;51.690;5.174;2022-09-09T07:38:16;15.50;88.30
64670;DHT22;51080;51.690;5.174;2022-09-09T07:44:29;15.80;86.00
64670;DHT22;51080;51.690;5.174;2022-09-09T07:50:14;15.90;86.20
64670;DHT22;51080;51.690;5.174;2022-09-09T07:56:05;16.00;84.60
64670;DHT22;51080;51.690;5.174;2022-09-09T08:01:50;16.10;84.50
64670;DHT22;51080;51.690;5.174;2022-09-09T08:07:34;16.40;84.80
64670;DHT22;51080;51.690;5.174;2022-09-09T08:13:49;16.50;83.30
64670;DHT22;51080;51.690;5.174;2022-09-09T08:19:34;16.60;82.90
64670;DHT22;51080;51.690;5.174;2022-09-09T08:25:18;16.60;81.60
64670;DHT22;51080;51.690;5.174;2022-09-09T08:31:07;16.60;83.00
64670;DHT22;51080;51.690;5.174;2022-09-09T08:36:51;16.90;82.30
64670;DHT22;51080;51.690;5.174;2022-09-09T08:42:38;16.90;81.50
64670;DHT22;51080;51.690;5.174;2022-09-09T08:48:56;17.00;80.70
64670;DHT22;51080;51.690;5.174;2022-09-09T08:54:44;17.00;79.80
64670;DHT22;51080;51.690;5.174;2022-09-09T09:00:44;17.00;79.80
64670;DHT22;51080;51.690;5.174;2022-09-09T09:06:55;16.90;79.50
64670;DHT22;51080;51.690;5.174;2022-09-09T09:12:43;17.00;79.00
64670;DHT22;51080;51.690;5.174;2022-09-09T09:18:28;17.20;79.30
64670;DHT22;51080;51.690;5.174;2022-09-09T09:24:18;17.30;78.20
64670;DHT22;51080;51.690;5.174;2022-09-09T09:30:18;17.40;78.00
64670;DHT22;51080;51.690;5.174;2022-09-09T09:36:03;17.30;77.90
64670;DHT22;51080;51.690;5.174;2022-09-09T09:41:47;17.10;78.20
64670;DHT22;51080;51.690;5.174;2022-09-09T09:47:29;17.00;78.50
64670;DHT22;51080;51.690;5.174;2022-09-09T09:53:21;16.90;79.30
64670;DHT22;51080;51.690;5.174;2022-09-09T09:59:36;16.50;83.10
64670;DHT22;51080;51.690;5.174;2022-09-09T10:05:25;16.20;84.90
64670;DHT22;51080;51.690;5.174;2022-09-09T10:30:03;18.10;81.90
64670;DHT22;51080;51.690;5.174;2022-09-09T10:36:08;17.80;81.60
64670;DHT22;51080;51.690;5.174;2022-09-09T10:42:09;17.80;81.90
64670;DHT22;51080;51.690;5.174;2022-09-09T11:00:47;18.00;80.30
64670;DHT22;51080;51.690;5.174;2022-09-09T11:07:08;17.90;80.60
64670;DHT22;51080;51.690;5.174;2022-09-09T11:12:57;17.50;80.60
64670;DHT22;51080;51.690;5.174;2022-09-09T11:18:43;17.20;81.40
64670;DHT22;51080;51.690;5.174;2022-09-09T11:24:41;17.00;83.00
64670;DHT22;51080;51.690;5.174;2022-09-09T11:43:08;16.70;85.50
64670;DHT22;51080;51.690;5.174;2022-09-09T11:49:01;16.80;86.40
64670;DHT22;51080;51.690;5.174;2022-09-09T11:54:48;16.90;86.10
64670;DHT22;51080;51.690;5.174;2022-09-09T12:00:40;17.10;85.90
64670;DHT22;51080;51.690;5.174;2022-09-09T12:12:39;17.30;84.90
64670;DHT22;51080;51.690;5.174;2022-09-09T12:25:09;17.90;82.90
64670;DHT22;51080;51.690;5.174;2022-09-09T12:31:04;18.20;80.30
64670;DHT22;51080;51.690;5.174;2022-09-09T12:36:55;18.10;80.10
64670;DHT22;51080;51.690;5.174;2022-09-09T12:42:41;18.10;80.40
64670;DHT22;51080;51.690;5.174;2022-09-09T12:48:41;18.10;80.40
64670;DHT22;51080;51.690;5.174;2022-09-09T12:54:25;18.30;80.20
64670;DHT22;51080;51.690;5.174;2022-09-09T13:00:17;18.60;79.30
64670;DHT22;51080;51.690;5.174;2022-09-09T13:06:13;18.70;76.70
64670;DHT22;51080;51.690;5.174;2022-09-09T13:12:01;18.60;78.10
64670;DHT22;51080;51.690;5.174;2022-09-09T13:17:51;18.30;78.30
64670;DHT22;51080;51.690;5.174;2022-09-09T13:24:30;18.10;78.70
64670;DHT22;51080;51.690;5.174;2022-09-09T13:30:33;17.90;80.60
64670;DHT22;51080;51.690;5.174;2022-09-09T13:36:32;17.90;78.70
64670;DHT22;51080;51.690;5.174;2022-09-09T13:42:28;17.90;78.40
64670;DHT22;51080;51.690;5.174;2022-09-09T13:48:17;18.10;77.80
64670;DHT22;51080;51.690;5.174;2022-09-09T13:54:03;18.30;76.50
64670;DHT22;51080;51.690;5.174;2022-09-09T13:59:48;18.30;76.80
64670;DHT22;51080;51.690;5.174;2022-09-09T14:05:33;18.60;75.80
64670;DHT22;51080;51.690;5.174;2022-09-09T14:11:18;18.80;75.00
64670;DHT22;51080;51.690;5.174;2022-09-09T14:17:03;18.70;73.50
64670;DHT22;51080;51.690;5.174;2022-09-09T14:22:48;18.70;73.60
64670;DHT22;51080;51.690;5.174;2022-09-09T14:28:33;18.80;73.50
64670;DHT22;51080;51.690;5.174;2022-09-09T14:34:19;19.10;74.20
64670;DHT22;51080;51.690;5.174;2022-09-09T14:40:04;19.50;70.60
64670;DHT22;51080;51.690;5.174;2022-09-09T14:45:51;19.40;69.60
64670;DHT22;51080;51.690;5.174;2022-09-09T14:51:36;19.10;71.10
64670;DHT22;51080;51.690;5.174;2022-09-09T14:57:21;18.80;70.60
64670;DHT22;51080;51.690;5.174;2022-09-09T15:03:05;18.60;70.90
64670;DHT22;51080;51.690;5.174;2022-09-09T15:09:20;18.40;70.10
64670;DHT22;51080;51.690;5.174;2022-09-09T15:15:06;18.30;71.00
64670;DHT22;51080;51.690;5.174;2022-09-09T15:20:59;18.00;72.20
64670;DHT22;51080;51.690;5.174;2022-09-09T15:26:47;17.80;74.40
64670;DHT22;51080;51.690;5.174;2022-09-09T15:32:38;17.80;75.50
64670;DHT22;51080;51.690;5.174;2022-09-09T15:38:25;18.00;78.30
64670;DHT22;51080;51.690;5.174;2022-09-09T15:44:11;18.60;76.70
64670;DHT22;51080;51.690;5.174;2022-09-09T15:49:56;18.80;75.20
64670;DHT22;51080;51.690;5.174;2022-09-09T15:55:40;19.50;75.50
64670;DHT22;51080;51.690;5.174;2022-09-09T16:01:26;19.90;72.70
64670;DHT22;51080;51.690;5.174;2022-09-09T16:07:10;20.70;70.90
64670;DHT22;51080;51.690;5.174;2022-09-09T16:12:55;20.30;68.30
64670;DHT22;51080;51.690;5.174;2022-09-09T16:18:44;19.60;68.80
64670;DHT22;51080;51.690;5.174;2022-09-09T16:24:29;19.20;69.50
64670;DHT22;51080;51.690;5.174;2022-09-09T16:30:14;19.00;70.20
64670;DHT22;51080;51.690;5.174;2022-09-09T16:36:07;18.80;71.00
64670;DHT22;51080;51.690;5.174;2022-09-09T16:41:53;18.70;72.30
64670;DHT22;51080;51.690;5.174;2022-09-09T16:47:36;18.40;73.70
64670;DHT22;51080;51.690;5.174;2022-09-09T16:53:21;18.40;74.90
64670;DHT22;51080;51.690;5.174;2022-09-09T16:59:08;18.40;75.30
64670;DHT22;51080;51.690;5.174;2022-09-09T17:04:53;18.50;75.20
64670;DHT22;51080;51.690;5.174;2022-09-09T17:10:41;18.60;75.10
64670;DHT22;51080;51.690;5.174;2022-09-09T17:16:29;18.60;75.10
64670;DHT22;51080;51.690;5.174;2022-09-09T17:22:14;18.50;75.10
64670;DHT22;51080;51.690;5.174;2022-09-09T17:27:59;18.40;75.20
64670;DHT22;51080;51.690;5.174;2022-09-09T17:33:46;18.20;75.70
64670;DHT22;51080;51.690;5.174;2022-09-09T17:39:32;18.20;75.40
64670;DHT22;51080;51.690;5.174;2022-09-09T17:45:15;18.00;76.00
64670;DHT22;51080;51.690;5.174;2022-09-09T17:51:00;17.90;76.40
64670;DHT22;51080;51.690;5.174;2022-09-09T17:56:47;17.80;76.70
64670;DHT22;51080;51.690;5.174;2022-09-09T18:02:31;17.60;76.80
64670;DHT22;51080;51.690;5.174;2022-09-09T18:08:16;17.50;77.10
64670;DHT22;51080;51.690;5.174;2022-09-09T18:14:03;17.40;77.80
64670;DHT22;51080;51.690;5.174;2022-09-09T18:19:48;17.20;78.50
64670;DHT22;51080;51.690;5.174;2022-09-09T18:25:39;17.10;78.90
64670;DHT22;51080;51.690;5.174;2022-09-09T18:31:25;17.00;79.20
64670;DHT22;51080;51.690;5.174;2022-09-09T18:37:40;16.90;79.40
64670;DHT22;51080;51.690;5.174;2022-09-09T18:43:25;16.90;80.40
64670;DHT22;51080;51.690;5.174;2022-09-09T18:49:10;16.80;80.00
64670;DHT22;51080;51.690;5.174;2022-09-09T18:54:54;16.70;80.00
64670;DHT22;51080;51.690;5.174;2022-09-09T19:00:38;16.60;79.50
64670;DHT22;51080;51.690;5.174;2022-09-09T19:06:51;16.50;79.80
64670;DHT22;51080;51.690;5.174;2022-09-09T19:12:36;16.50;80.40
64670;DHT22;51080;51.690;5.174;2022-09-09T19:18:50;16.60;80.10
64670;DHT22;51080;51.690;5.174;2022-09-09T19:24:34;16.60;80.00
64670;DHT22;51080;51.690;5.174;2022-09-09T19:30:18;16.50;79.40
64670;DHT22;51080;51.690;5.174;2022-09-09T19:36:06;16.30;80.00
64670;DHT22;51080;51.690;5.174;2022-09-09T19:41:50;16.20;80.20
64670;DHT22;51080;51.690;5.174;2022-09-09T19:47:32;16.10;80.20
64670;DHT22;51080;51.690;5.174;2022-09-09T19:53:48;16.00;80.50
64670;DHT22;51080;51.690;5.174;2022-09-09T20:00:03;16.00;80.60
64670;DHT22;51080;51.690;5.174;2022-09-09T20:05:47;15.90;81.30
64670;DHT22;51080;51.690;5.174;2022-09-09T20:12:01;15.90;80.80
64670;DHT22;51080;51.690;5.174;2022-09-09T20:17:45;15.80;81.30
64670;DHT22;51080;51.690;5.174;2022-09-09T20:23:29;15.70;82.60
64670;DHT22;51080;51.690;5.174;2022-09-09T20:29:16;15.60;81.80
64670;DHT22;51080;51.690;5.174;2022-09-09T20:35:30;15.60;82.60
64670;DHT22;51080;51.690;5.174;2022-09-09T20:41:44;15.50;84.20
64670;DHT22;51080;51.690;5.174;2022-09-09T20:47:27;15.50;84.20
64670;DHT22;51080;51.690;5.174;2022-09-09T20:53:11;15.40;83.50
64670;DHT22;51080;51.690;5.174;2022-09-09T20:58:55;15.40;83.70
64670;DHT22;51080;51.690;5.174;2022-09-09T21:04:40;15.40;83.20
64670;DHT22;51080;51.690;5.174;2022-09-09T21:10:25;15.40;83.80
64670;DHT22;51080;51.690;5.174;2022-09-09T21:16:14;15.30;84.80
64670;DHT22;51080;51.690;5.174;2022-09-09T21:22:02;15.30;85.40
64670;DHT22;51080;51.690;5.174;2022-09-09T21:27:45;15.30;85.70
64670;DHT22;51080;51.690;5.174;2022-09-09T21:33:59;15.40;85.70
64670;DHT22;51080;51.690;5.174;2022-09-09T21:39:43;15.40;86.40
64670;DHT22;51080;51.690;5.174;2022-09-09T21:45:26;15.40;85.00
64670;DHT22;51080;51.690;5.174;2022-09-09T21:51:14;15.40;85.80
64670;DHT22;51080;51.690;5.174;2022-09-09T21:56:59;15.50;85.90
64670;DHT22;51080;51.690;5.174;2022-09-09T22:02:43;15.50;86.10
64670;DHT22;51080;51.690;5.174;2022-09-09T22:08:28;15.40;85.90
64670;DHT22;51080;51.690;5.174;2022-09-09T22:14:11;15.40;85.70
64670;DHT22;51080;51.690;5.174;2022-09-09T22:19:55;15.50;85.60
64670;DHT22;51080;51.690;5.174;2022-09-09T22:25:39;15.50;85.10
64670;DHT22;51080;51.690;5.174;2022-09-09T22:31:24;15.50;85.30
64670;DHT22;51080;51.690;5.174;2022-09-09T22:37:38;15.50;84.90
64670;DHT22;51080;51.690;5.174;2022-09-09T22:43:52;15.50;85.40
64670;DHT22;51080;51.690;5.174;2022-09-09T22:49:36;15.50;85.20
64670;DHT22;51080;51.690;5.174;2022-09-09T22:55:19;15.50;84.40
64670;DHT22;51080;51.690;5.174;2022-09-09T23:01:09;15.40;84.50
64670;DHT22;51080;51.690;5.174;2022-09-09T23:06:53;15.40;84.60
64670;DHT22;51080;51.690;5.174;2022-09-09T23:12:38;15.30;84.60
64670;DHT22;51080;51.690;5.174;2022-09-09T23:18:22;15.30;84.40
64670;DHT22;51080;51.690;5.174;2022-09-09T23:24:09;15.30;85.00
64670;DHT22;51080;51.690;5.174;2022-09-09T23:29:52;15.20;85.30
64670;DHT22;51080;51.690;5.174;2022-09-09T23:35:37;15.20;85.40
64670;DHT22;51080;51.690;5.174;2022-09-09T23:41:21;15.20;85.20
64670;DHT22;51080;51.690;5.174;2022-09-09T23:47:04;15.20;85.20
64670;DHT22;51080;51.690;5.174;2022-09-09T23:52:48;15.20;85.70
64670;DHT22;51080;51.690;5.174;2022-09-09T23:58:32;15.20;85.80
